Terminal Aerodrome Forecast
Issued by NWS Billings, MT

Home | Current Version | Previous Version | Text Only | Print | Product List | Glossary On
Versions: 1 2 3 4 5 6 7 8 9 10 11 12 13 14 15 16 17 18 19 20 21 22 23 24 25 26 27 28 29 30 31 32 33 34
288
FTUS45 KBYZ 221930 AAA
TAFSHR
TAF AMD
KSHR 221930Z 2220/2318 35006KT P6SM VCTS FEW090CB BKN120
      TEMPO 2220/2224 -TSRA BKN060CB
     FM230200 20008KT 5SM -SHRA OVC050
     FM230600 20008KT 2SM -SHRA OVC020=

USA.gov is the U.S. government's official web portal to all federal, state and local government web resources and services.